sensor_id;sensor_type;location;lat;lon;timestamp;pressure;altitude;pressure_sealevel;temperature;humidity
69566;BME280;56777;55.930;37.524;2024-02-04T00:02:08;100073.88;;;1.04;100.00
69566;BME280;56777;55.930;37.524;2024-02-04T00:04:38;100071.53;;;1.09;100.00
69566;BME280;56777;55.930;37.524;2024-02-04T00:07:04;100085.63;;;1.17;100.00
69566;BME280;56777;55.930;37.524;2024-02-04T00:09:30;100067.28;;;1.11;100.00
69566;BME280;56777;55.930;37.524;2024-02-04T00:11:56;100048.31;;;1.09;100.00
69566;BME280;56777;55.930;37.524;2024-02-04T00:14:23;100071.97;;;1.20;100.00
69566;BME280;56777;55.930;37.524;2024-02-04T00:16:48;100054.53;;;1.14;100.00
69566;BME280;56777;55.930;37.524;2024-02-04T00:19:14;100064.19;;;1.18;100.00
69566;BME280;56777;55.930;37.524;2024-02-04T00:21:39;100058.47;;;1.25;100.00
69566;BME280;56777;55.930;37.524;2024-02-04T00:24:05;100039.31;;;1.20;100.00
69566;BME280;56777;55.930;37.524;2024-02-04T00:26:31;100059.34;;;1.26;100.00
69566;BME280;56777;55.930;37.524;2024-02-04T00:28:56;100053.56;;;1.31;100.00
69566;BME280;56777;55.930;37.524;2024-02-04T00:31:22;100043.13;;;1.28;100.00
69566;BME280;56777;55.930;37.524;2024-02-04T00:33:47;100046.03;;;1.36;100.00
69566;BME280;56777;55.930;37.524;2024-02-04T00:36:13;100047.75;;;1.35;100.00
69566;BME280;56777;55.930;37.524;2024-02-04T00:38:38;100050.59;;;1.42;100.00
69566;BME280;56777;55.930;37.524;2024-02-04T00:41:04;100042.63;;;1.37;100.00
69566;BME280;56777;55.930;37.524;2024-02-04T00:43:30;100043.72;;;1.42;100.00
69566;BME280;56777;55.930;37.524;2024-02-04T00:45:56;100030.06;;;1.45;100.00
69566;BME280;56777;55.930;37.524;2024-02-04T00:48:22;100016.09;;;1.40;100.00
69566;BME280;56777;55.930;37.524;2024-02-04T00:50:47;100034.69;;;1.52;100.00
69566;BME280;56777;55.930;37.524;2024-02-04T00:53:13;100019.88;;;1.48;100.00
69566;BME280;56777;55.930;37.524;2024-02-04T00:55:38;100035.13;;;1.63;100.00
69566;BME280;56777;55.930;37.524;2024-02-04T00:58:04;100019.84;;;1.67;100.00
69566;BME280;56777;55.930;37.524;2024-02-04T01:00:29;100017.53;;;1.73;100.00
69566;BME280;56777;55.930;37.524;2024-02-04T01:02:55;100007.94;;;1.71;100.00
69566;BME280;56777;55.930;37.524;2024-02-04T01:05:20;100008.81;;;1.71;100.00
69566;BME280;56777;55.930;37.524;2024-02-04T01:07:46;100026.47;;;1.82;100.00
69566;BME280;56777;55.930;37.524;2024-02-04T01:10:13;99982.56;;;1.61;100.00
69566;BME280;56777;55.930;37.524;2024-02-04T01:12:39;100015.13;;;1.78;100.00
69566;BME280;56777;55.930;37.524;2024-02-04T01:15:05;99985.31;;;1.65;100.00
69566;BME280;56777;55.930;37.524;2024-02-04T01:17:31;99964.09;;;1.51;100.00
69566;BME280;56777;55.930;37.524;2024-02-04T01:19:58;99976.16;;;1.72;100.00
69566;BME280;56777;55.930;37.524;2024-02-04T01:22:24;99989.34;;;1.79;100.00
69566;BME280;56777;55.930;37.524;2024-02-04T01:24:52;99999.81;;;1.83;100.00
69566;BME280;56777;55.930;37.524;2024-02-04T01:27:17;99998.69;;;1.76;100.00
69566;BME280;56777;55.930;37.524;2024-02-04T01:29:43;100005.22;;;1.89;100.00
69566;BME280;56777;55.930;37.524;2024-02-04T01:32:08;99983.50;;;1.84;100.00
69566;BME280;56777;55.930;37.524;2024-02-04T01:34:34;99970.47;;;1.80;100.00
69566;BME280;56777;55.930;37.524;2024-02-04T01:37:00;99995.91;;;1.92;100.00
69566;BME280;56777;55.930;37.524;2024-02-04T01:39:25;99997.56;;;1.90;100.00
69566;BME280;56777;55.930;37.524;2024-02-04T01:41:51;99993.22;;;1.89;100.00
69566;BME280;56777;55.930;37.524;2024-02-04T01:44:16;99989.22;;;1.97;100.00
69566;BME280;56777;55.930;37.524;2024-02-04T01:46:43;99969.78;;;1.85;100.00
69566;BME280;56777;55.930;37.524;2024-02-04T01:49:09;99984.44;;;1.86;100.00
69566;BME280;56777;55.930;37.524;2024-02-04T01:51:36;100005.56;;;1.96;100.00
69566;BME280;56777;55.930;37.524;2024-02-04T01:54:03;99996.59;;;1.88;100.00
69566;BME280;56777;55.930;37.524;2024-02-04T01:56:29;99987.31;;;1.92;100.00
69566;BME280;56777;55.930;37.524;2024-02-04T01:58:55;100011.66;;;1.98;100.00
69566;BME280;56777;55.930;37.524;2024-02-04T02:01:22;100000.38;;;1.96;100.00
69566;BME280;56777;55.930;37.524;2024-02-04T02:03:48;100007.31;;;1.97;100.00
69566;BME280;56777;55.930;37.524;2024-02-04T02:06:15;99995.28;;;1.98;100.00
69566;BME280;56777;55.930;37.524;2024-02-04T02:08:42;99995.34;;;1.99;100.00
69566;BME280;56777;55.930;37.524;2024-02-04T02:11:41;100008.34;;;2.01;100.00
69566;BME280;56777;55.930;37.524;2024-02-04T02:14:13;99989.94;;;1.93;100.00
69566;BME280;56777;55.930;37.524;2024-02-04T02:16:40;99987.34;;;1.93;100.00
69566;BME280;56777;55.930;37.524;2024-02-04T02:21:50;99998.75;;;1.98;100.00
69566;BME280;56777;55.930;37.524;2024-02-04T02:26:50;100019.75;;;2.06;100.00
69566;BME280;56777;55.930;37.524;2024-02-04T02:29:16;100003.16;;;2.01;100.00
69566;BME280;56777;55.930;37.524;2024-02-04T02:31:42;99978.47;;;1.87;100.00
69566;BME280;56777;55.930;37.524;2024-02-04T02:34:09;100005.66;;;1.99;100.00
69566;BME280;56777;55.930;37.524;2024-02-04T02:36:44;100000.69;;;2.04;100.00
69566;BME280;56777;55.930;37.524;2024-02-04T02:39:18;100013.63;;;2.04;100.00
69566;BME280;56777;55.930;37.524;2024-02-04T02:41:49;100009.13;;;2.00;100.00
69566;BME280;56777;55.930;37.524;2024-02-04T02:44:18;99954.78;;;1.76;100.00
69566;BME280;56777;55.930;37.524;2024-02-04T02:46:46;99942.69;;;1.54;100.00
69566;BME280;56777;55.930;37.524;2024-02-04T02:49:12;100003.91;;;1.98;100.00
69566;BME280;56777;55.930;37.524;2024-02-04T02:51:37;99994.13;;;1.91;100.00
69566;BME280;56777;55.930;37.524;2024-02-04T02:54:03;100005.63;;;1.98;100.00
69566;BME280;56777;55.930;37.524;2024-02-04T02:56:28;100002.91;;;1.95;100.00
69566;BME280;56777;55.930;37.524;2024-02-04T02:58:54;100009.84;;;1.96;100.00
69566;BME280;56777;55.930;37.524;2024-02-04T03:01:19;99998.63;;;1.95;100.00
69566;BME280;56777;55.930;37.524;2024-02-04T03:03:45;99980.34;;;1.91;100.00
69566;BME280;56777;55.930;37.524;2024-02-04T03:06:10;99978.63;;;1.91;100.00
69566;BME280;56777;55.930;37.524;2024-02-04T03:08:36;99992.72;;;1.98;100.00
69566;BME280;56777;55.930;37.524;2024-02-04T03:11:01;99988.28;;;1.95;100.00
69566;BME280;56777;55.930;37.524;2024-02-04T03:13:27;99981.22;;;1.91;100.00
69566;BME280;56777;55.930;37.524;2024-02-04T03:15:52;99989.22;;;1.97;100.00
69566;BME280;56777;55.930;37.524;2024-02-04T03:18:18;99983.06;;;1.94;100.00
69566;BME280;56777;55.930;37.524;2024-02-04T03:20:44;99995.28;;;1.98;100.00
69566;BME280;56777;55.930;37.524;2024-02-04T03:23:09;99997.03;;;1.99;100.00
69566;BME280;56777;55.930;37.524;2024-02-04T03:25:35;99996.09;;;1.97;100.00
69566;BME280;56777;55.930;37.524;2024-02-04T03:28:00;99997.69;;;1.93;100.00
69566;BME280;56777;55.930;37.524;2024-02-04T03:30:26;99992.72;;;1.98;100.00
69566;BME280;56777;55.930;37.524;2024-02-04T03:32:51;99991.81;;;1.97;100.00
69566;BME280;56777;55.930;37.524;2024-02-04T03:35:17;99987.41;;;1.95;100.00
69566;BME280;56777;55.930;37.524;2024-02-04T03:37:42;99967.25;;;1.86;100.00
69566;BME280;56777;55.930;37.524;2024-02-04T03:40:08;99961.31;;;1.89;100.00
69566;BME280;56777;55.930;37.524;2024-02-04T03:42:34;99972.03;;;1.98;100.00
69566;BME280;56777;55.930;37.524;2024-02-04T03:44:59;100000.00;;;2.08;100.00
69566;BME280;56777;55.930;37.524;2024-02-04T03:47:26;99988.53;;;2.01;100.00
69566;BME280;56777;55.930;37.524;2024-02-04T03:49:52;99989.41;;;2.02;100.00
69566;BME280;56777;55.930;37.524;2024-02-04T03:52:17;99984.97;;;1.98;100.00
69566;BME280;56777;55.930;37.524;2024-02-04T03:54:43;99994.66;;;2.03;100.00
69566;BME280;56777;55.930;37.524;2024-02-04T03:57:08;99993.06;;;2.07;100.00
69566;BME280;56777;55.930;37.524;2024-02-04T03:59:34;99988.66;;;2.05;100.00
69566;BME280;56777;55.930;37.524;2024-02-04T04:01:59;100007.06;;;2.12;100.00
69566;BME280;56777;55.930;37.524;2024-02-04T04:04:25;99972.16;;;2.01;100.00
69566;BME280;56777;55.930;37.524;2024-02-04T04:06:51;99978.00;;;1.97;100.00
69566;BME280;56777;55.930;37.524;2024-02-04T04:09:17;99990.38;;;2.04;100.00
69566;BME280;56777;55.930;37.524;2024-02-04T04:11:42;99968.38;;;1.93;100.00
69566;BME280;56777;55.930;37.524;2024-02-04T04:14:08;99991.16;;;2.03;100.00
69566;BME280;56777;55.930;37.524;2024-02-04T04:16:33;99994.81;;;2.08;100.00
69566;BME280;56777;55.930;37.524;2024-02-04T04:18:59;99988.72;;;2.06;100.00
69566;BME280;56777;55.930;37.524;2024-02-04T04:21:24;100017.31;;;2.11;100.00
69566;BME280;56777;55.930;37.524;2024-02-04T04:23:50;99997.41;;;2.08;100.00
69566;BME280;56777;55.930;37.524;2024-02-04T04:26:15;100004.28;;;2.08;100.00
69566;BME280;56777;55.930;37.524;2024-02-04T04:28:41;100004.38;;;2.09;100.00
69566;BME280;56777;55.930;37.524;2024-02-04T04:31:07;99948.75;;;1.75;100.00
69566;BME280;56777;55.930;37.524;2024-02-04T04:33:32;99998.91;;;2.03;100.00
69566;BME280;56777;55.930;37.524;2024-02-04T04:35:58;99997.91;;;1.99;100.00
69566;BME280;56777;55.930;37.524;2024-02-04T04:38:23;99994.59;;;2.02;100.00
69566;BME280;56777;55.930;37.524;2024-02-04T04:40:49;100000.63;;;2.02;100.00
69566;BME280;56777;55.930;37.524;2024-02-04T04:43:14;99983.00;;;1.92;100.00
69566;BME280;56777;55.930;37.524;2024-02-04T04:45:40;99977.13;;;1.96;100.00
69566;BME280;56777;55.930;37.524;2024-02-04T04:48:06;100006.00;;;2.07;100.00
69566;BME280;56777;55.930;37.524;2024-02-04T04:50:35;100016.50;;;2.12;100.00
69566;BME280;56777;55.930;37.524;2024-02-04T04:53:01;99967.91;;;1.80;100.00
69566;BME280;56777;55.930;37.524;2024-02-04T04:55:26;99985.50;;;1.91;100.00
69566;BME280;56777;55.930;37.524;2024-02-04T04:57:52;100008.63;;;2.09;100.00
69566;BME280;56777;55.930;37.524;2024-02-04T05:00:18;100005.88;;;2.04;100.00
69566;BME280;56777;55.930;37.524;2024-02-04T05:02:43;100002.28;;;2.00;100.00
69566;BME280;56777;55.930;37.524;2024-02-04T05:05:12;100011.09;;;2.06;100.00
69566;BME280;56777;55.930;37.524;2024-02-04T05:07:38;99981.63;;;2.00;100.00
69566;BME280;56777;55.930;37.524;2024-02-04T05:10:04;100012.91;;;2.08;100.00
69566;BME280;56777;55.930;37.524;2024-02-04T05:12:32;100008.44;;;2.04;100.00
69566;BME280;56777;55.930;37.524;2024-02-04T05:14:58;99990.00;;;1.95;100.00
69566;BME280;56777;55.930;37.524;2024-02-04T05:17:24;100015.50;;;2.08;100.00
69566;BME280;56777;55.930;37.524;2024-02-04T05:19:49;100015.63;;;2.11;100.00
69566;BME280;56777;55.930;37.524;2024-02-04T05:22:15;99990.81;;;2.15;100.00
69566;BME280;56777;55.930;37.524;2024-02-04T05:24:41;99968.78;;;1.81;100.00
69566;BME280;56777;55.930;37.524;2024-02-04T05:27:07;99971.63;;;1.89;100.00
69566;BME280;56777;55.930;37.524;2024-02-04T05:29:33;100021.75;;;2.13;100.00
69566;BME280;56777;55.930;37.524;2024-02-04T05:31:59;99997.28;;;2.05;100.00
69566;BME280;56777;55.930;37.524;2024-02-04T05:34:24;100006.13;;;2.10;100.00
69566;BME280;56777;55.930;37.524;2024-02-04T05:36:50;100010.56;;;2.14;100.00
69566;BME280;56777;55.930;37.524;2024-02-04T05:39:16;100014.06;;;2.15;100.00
69566;BME280;56777;55.930;37.524;2024-02-04T05:41:42;100021.19;;;2.20;100.00
69566;BME280;56777;55.930;37.524;2024-02-04T05:44:08;100005.41;;;2.14;100.00
69566;BME280;56777;55.930;37.524;2024-02-04T05:46:38;100012.47;;;2.18;100.00
69566;BME280;56777;55.930;37.524;2024-02-04T05:49:04;100004.53;;;2.14;100.00
69566;BME280;56777;55.930;37.524;2024-02-04T05:51:40;99992.31;;;2.10;100.00
69566;BME280;56777;55.930;37.524;2024-02-04T05:54:06;100007.47;;;2.23;100.00
69566;BME280;56777;55.930;37.524;2024-02-04T05:56:32;100011.66;;;2.19;100.00
69566;BME280;56777;55.930;37.524;2024-02-04T05:58:58;99998.59;;;2.16;100.00
69566;BME280;56777;55.930;37.524;2024-02-04T06:01:23;99965.03;;;1.95;100.00
69566;BME280;56777;55.930;37.524;2024-02-04T06:03:49;99998.41;;;2.12;100.00
69566;BME280;56777;55.930;37.524;2024-02-04T06:06:15;99995.25;;;2.19;100.00
69566;BME280;56777;55.930;37.524;2024-02-04T06:08:42;99942.19;;;1.84;100.00
69566;BME280;56777;55.930;37.524;2024-02-04T06:11:12;100002.13;;;2.18;100.00
69566;BME280;56777;55.930;37.524;2024-02-04T06:13:43;99984.59;;;2.11;100.00
69566;BME280;56777;55.930;37.524;2024-02-04T06:16:09;99958.03;;;1.93;100.00
69566;BME280;56777;55.930;37.524;2024-02-04T06:18:37;99943.94;;;1.85;100.00
69566;BME280;56777;55.930;37.524;2024-02-04T06:21:04;99963.41;;;2.20;100.00
69566;BME280;56777;55.930;37.524;2024-02-04T06:23:29;99999.06;;;2.29;100.00
69566;BME280;56777;55.930;37.524;2024-02-04T06:25:55;99985.13;;;2.23;100.00
69566;BME280;56777;55.930;37.524;2024-02-04T06:28:20;99971.75;;;2.13;100.00
69566;BME280;56777;55.930;37.524;2024-02-04T06:30:46;99948.03;;;2.00;100.00
69566;BME280;56777;55.930;37.524;2024-02-04T06:33:11;99958.53;;;2.05;100.00
69566;BME280;56777;55.930;37.524;2024-02-04T06:35:37;99990.00;;;2.17;100.00
69566;BME280;56777;55.930;37.524;2024-02-04T06:38:03;99991.03;;;2.21;100.00
69566;BME280;56777;55.930;37.524;2024-02-04T06:40:28;99991.81;;;2.18;100.00
69566;BME280;56777;55.930;37.524;2024-02-04T06:42:54;99988.22;;;2.15;100.00
69566;BME280;56777;55.930;37.524;2024-02-04T06:45:19;99985.63;;;2.15;100.00
69566;BME280;56777;55.930;37.524;2024-02-04T06:47:45;100001.25;;;2.18;100.00
69566;BME280;56777;55.930;37.524;2024-02-04T06:50:10;99966.69;;;1.93;100.00
69566;BME280;56777;55.930;37.524;2024-02-04T06:52:42;100003.66;;;2.13;100.00
69566;BME280;56777;55.930;37.524;2024-02-04T06:55:08;99996.59;;;2.09;100.00
69566;BME280;56777;55.930;37.524;2024-02-04T06:57:34;99984.47;;;2.08;100.00
69566;BME280;56777;55.930;37.524;2024-02-04T07:00:00;99973.78;;;1.99;100.00
69566;BME280;56777;55.930;37.524;2024-02-04T07:02:25;99975.53;;;2.00;100.00
69566;BME280;56777;55.930;37.524;2024-02-04T07:04:51;99982.50;;;2.01;100.00
69566;BME280;56777;55.930;37.524;2024-02-04T07:07:16;99979.72;;;1.96;100.00
69566;BME280;56777;55.930;37.524;2024-02-04T07:09:42;99976.50;;;2.02;100.00
69566;BME280;56777;55.930;37.524;2024-02-04T07:12:08;100002.34;;;2.02;100.00
69566;BME280;56777;55.930;37.524;2024-02-04T07:14:33;99984.84;;;1.95;100.00
69566;BME280;56777;55.930;37.524;2024-02-04T07:16:59;99978.72;;;1.93;100.00
69566;BME280;56777;55.930;37.524;2024-02-04T07:19:24;99992.59;;;1.95;100.00
69566;BME280;56777;55.930;37.524;2024-02-04T07:21:50;99991.44;;;2.09;100.00
69566;BME280;56777;55.930;37.524;2024-02-04T07:24:15;99972.41;;;2.07;100.00
69566;BME280;56777;55.930;37.524;2024-02-04T07:26:41;99987.06;;;2.08;100.00
69566;BME280;56777;55.930;37.524;2024-02-04T07:29:07;99976.72;;;2.08;100.00
69566;BME280;56777;55.930;37.524;2024-02-04T07:31:32;99983.06;;;2.15;100.00
69566;BME280;56777;55.930;37.524;2024-02-04T07:34:02;99966.47;;;2.10;100.00
69566;BME280;56777;55.930;37.524;2024-02-04T07:36:28;99981.47;;;2.18;100.00
69566;BME280;56777;55.930;37.524;2024-02-04T07:38:53;99993.91;;;2.29;100.00
69566;BME280;56777;55.930;37.524;2024-02-04T07:41:19;100002.63;;;2.31;100.00
69566;BME280;56777;55.930;37.524;2024-02-04T07:43:45;99967.06;;;2.25;100.00
69566;BME280;56777;55.930;37.524;2024-02-04T07:46:10;99947.97;;;2.21;100.00
69566;BME280;56777;55.930;37.524;2024-02-04T07:48:36;99991.97;;;2.45;100.00
69566;BME280;56777;55.930;37.524;2024-02-04T07:51:02;99988.75;;;2.51;100.00
69566;BME280;56777;55.930;37.524;2024-02-04T07:53:27;99985.16;;;2.47;100.00
69566;BME280;56777;55.930;37.524;2024-02-04T07:55:53;99983.56;;;2.51;100.00
69566;BME280;56777;55.930;37.524;2024-02-04T07:58:18;99989.69;;;2.53;100.00
69566;BME280;56777;55.930;37.524;2024-02-04T08:00:44;99987.84;;;2.49;100.00
69566;BME280;56777;55.930;37.524;2024-02-04T08:03:09;99981.63;;;2.45;100.00
69566;BME280;56777;55.930;37.524;2024-02-04T08:05:35;99993.91;;;2.51;100.00
69566;BME280;56777;55.930;37.524;2024-02-04T08:08:01;99992.31;;;2.55;100.00
69566;BME280;56777;55.930;37.524;2024-02-04T08:10:27;99984.28;;;2.47;100.00
69566;BME280;56777;55.930;37.524;2024-02-04T08:12:52;99965.88;;;2.39;100.00
69566;BME280;56777;55.930;37.524;2024-02-04T08:15:19;99963.19;;;2.36;100.00
69566;BME280;56777;55.930;37.524;2024-02-04T08:17:45;99985.28;;;2.51;100.00
69566;BME280;56777;55.930;37.524;2024-02-04T08:20:11;99994.88;;;2.53;100.00
69566;BME280;56777;55.930;37.524;2024-02-04T08:22:37;100001.91;;;2.57;100.00
69566;BME280;56777;55.930;37.524;2024-02-04T08:25:04;99971.19;;;2.42;100.00
69566;BME280;56777;55.930;37.524;2024-02-04T08:27:31;100002.03;;;2.60;100.00
69566;BME280;56777;55.930;37.524;2024-02-04T08:29:56;100008.16;;;2.62;100.00
69566;BME280;56777;55.930;37.524;2024-02-04T08:32:22;99995.75;;;2.54;100.00
69566;BME280;56777;55.930;37.524;2024-02-04T08:34:48;99986.50;;;2.60;100.00
69566;BME280;56777;55.930;37.524;2024-02-04T08:37:13;99986.69;;;2.65;100.00
69566;BME280;56777;55.930;37.524;2024-02-04T08:39:39;99925.94;;;2.31;100.00
69566;BME280;56777;55.930;37.524;2024-02-04T08:42:04;99970.63;;;2.74;100.00
69566;BME280;56777;55.930;37.524;2024-02-04T08:44:30;99996.50;;;2.74;100.00
69566;BME280;56777;55.930;37.524;2024-02-04T08:46:56;99975.78;;;2.72;100.00
69566;BME280;56777;55.930;37.524;2024-02-04T08:49:22;99977.53;;;2.73;100.00
69566;BME280;56777;55.930;37.524;2024-02-04T08:51:47;99983.75;;;2.78;100.00
69566;BME280;56777;55.930;37.524;2024-02-04T08:54:13;99969.97;;;2.79;100.00
69566;BME280;56777;55.930;37.524;2024-02-04T08:56:38;99966.63;;;2.82;100.00
69566;BME280;56777;55.930;37.524;2024-02-04T08:59:04;99971.69;;;2.79;100.00
69566;BME280;56777;55.930;37.524;2024-02-04T09:01:31;99969.22;;;2.82;100.00
69566;BME280;56777;55.930;37.524;2024-02-04T09:03:57;99976.09;;;2.81;100.00
69566;BME280;56777;55.930;37.524;2024-02-04T09:06:23;99954.41;;;2.78;100.00
69566;BME280;56777;55.930;37.524;2024-02-04T09:08:48;99959.91;;;2.87;100.00
69566;BME280;56777;55.930;37.524;2024-02-04T09:11:15;99945.94;;;2.82;100.00
69566;BME280;56777;55.930;37.524;2024-02-04T09:13:47;99922.97;;;2.67;100.00
69566;BME280;56777;55.930;37.524;2024-02-04T09:16:13;99960.97;;;2.92;100.00
69566;BME280;56777;55.930;37.524;2024-02-04T09:18:38;99903.75;;;2.60;100.00
69566;BME280;56777;55.930;37.524;2024-02-04T09:21:04;99952.19;;;2.88;100.00
69566;BME280;56777;55.930;37.524;2024-02-04T09:23:30;99945.19;;;2.86;100.00
69566;BME280;56777;55.930;37.524;2024-02-04T09:25:55;99952.19;;;2.88;100.00
69566;BME280;56777;55.930;37.524;2024-02-04T09:28:21;99949.38;;;2.82;100.00
69566;BME280;56777;55.930;37.524;2024-02-04T09:30:46;99957.81;;;2.77;100.00
69566;BME280;56777;55.930;37.524;2024-02-04T09:33:13;99959.44;;;2.75;100.00
69566;BME280;56777;55.930;37.524;2024-02-04T09:35:39;99935.38;;;2.76;100.00
69566;BME280;56777;55.930;37.524;2024-02-04T09:38:05;99935.25;;;2.73;100.00
69566;BME280;56777;55.930;37.524;2024-02-04T09:40:30;99937.06;;;2.75;100.00
69566;BME280;56777;55.930;37.524;2024-02-04T09:42:58;99946.69;;;2.79;100.00
69566;BME280;56777;55.930;37.524;2024-02-04T09:45:24;99927.63;;;2.77;100.00
69566;BME280;56777;55.930;37.524;2024-02-04T09:47:51;99938.09;;;2.80;100.00
69566;BME280;56777;55.930;37.524;2024-02-04T09:50:21;99925.13;;;2.79;100.00
69566;BME280;56777;55.930;37.524;2024-02-04T09:52:50;99948.34;;;2.77;100.00
69566;BME280;56777;55.930;37.524;2024-02-04T09:55:20;99934.50;;;2.75;100.00
69566;BME280;56777;55.930;37.524;2024-02-04T09:57:48;99943.22;;;2.79;100.00
69566;BME280;56777;55.930;37.524;2024-02-04T10:00:18;99923.94;;;2.69;100.00
69566;BME280;56777;55.930;37.524;2024-02-04T10:02:45;99911.50;;;2.60;100.00
69566;BME280;56777;55.930;37.524;2024-02-04T10:05:10;99937.13;;;2.77;100.00
69566;BME280;56777;55.930;37.524;2024-02-04T10:07:37;99934.38;;;2.72;100.00
69566;BME280;56777;55.930;37.524;2024-02-04T10:10:02;99893.41;;;2.60;100.00
69566;BME280;56777;55.930;37.524;2024-02-04T10:12:28;99851.84;;;2.32;100.00
69566;BME280;56777;55.930;37.524;2024-02-04T10:14:53;99922.53;;;2.79;100.00
69566;BME280;56777;55.930;37.524;2024-02-04T10:17:19;99878.97;;;2.43;100.00
69566;BME280;56777;55.930;37.524;2024-02-04T10:19:49;99934.75;;;2.83;100.00
69566;BME280;56777;55.930;37.524;2024-02-04T10:22:14;99931.06;;;2.76;100.00
69566;BME280;56777;55.930;37.524;2024-02-04T10:24:42;99879.34;;;2.52;100.00
69566;BME280;56777;55.930;37.524;2024-02-04T10:27:10;99909.09;;;2.65;100.00
69566;BME280;56777;55.930;37.524;2024-02-04T10:29:36;99917.25;;;2.76;100.00
69566;BME280;56777;55.930;37.524;2024-02-04T10:32:01;99854.69;;;2.38;100.00
69566;BME280;56777;55.930;37.524;2024-02-04T10:34:27;99920.28;;;2.88;100.00
69566;BME280;56777;55.930;37.524;2024-02-04T10:36:56;99909.06;;;2.87;100.00
69566;BME280;56777;55.930;37.524;2024-02-04T10:39:21;99917.00;;;2.92;100.00
69566;BME280;56777;55.930;37.524;2024-02-04T10:41:52;99916.16;;;2.93;100.00
69566;BME280;56777;55.930;37.524;2024-02-04T10:44:21;99911.06;;;2.96;100.00
69566;BME280;56777;55.930;37.524;2024-02-04T10:46:49;99925.97;;;3.03;100.00
69566;BME280;56777;55.930;37.524;2024-02-04T10:49:15;99905.16;;;3.00;100.00
69566;BME280;56777;55.930;37.524;2024-02-04T10:51:42;99897.66;;;3.06;100.00
69566;BME280;56777;55.930;37.524;2024-02-04T10:54:08;99896.91;;;3.10;100.00
69566;BME280;56777;55.930;37.524;2024-02-04T10:56:43;99912.53;;;3.13;100.00
69566;BME280;56777;55.930;37.524;2024-02-04T10:59:15;99900.25;;;3.06;100.00
69566;BME280;56777;55.930;37.524;2024-02-04T11:01:43;99902.97;;;3.11;100.00
69566;BME280;56777;55.930;37.524;2024-02-04T11:04:11;99912.75;;;3.20;100.00
69566;BME280;56777;55.930;37.524;2024-02-04T11:06:40;99904.28;;;3.24;100.00
69566;BME280;56777;55.930;37.524;2024-02-04T11:09:08;99908.63;;;3.25;100.00
69566;BME280;56777;55.930;37.524;2024-02-04T11:11:36;99900.75;;;3.22;100.00
69566;BME280;56777;55.930;37.524;2024-02-04T11:14:04;99849.56;;;2.89;100.00
69566;BME280;56777;55.930;37.524;2024-02-04T11:25:46;99875.63;;;2.93;100.00
69566;BME280;56777;55.930;37.524;2024-02-04T11:28:13;99875.91;;;3.01;100.00
69566;BME280;56777;55.930;37.524;2024-02-04T11:30:40;99876.34;;;2.89;100.00
69566;BME280;56777;55.930;37.524;2024-02-04T11:33:10;99919.16;;;3.05;100.00
69566;BME280;56777;55.930;37.524;2024-02-04T11:35:36;99902.44;;;2.96;100.00
69566;BME280;56777;55.930;37.524;2024-02-04T11:38:03;99920.69;;;3.00;100.00
69566;BME280;56777;55.930;37.524;2024-02-04T11:40:36;99905.28;;;3.03;100.00
69566;BME280;56777;55.930;37.524;2024-02-04T11:43:12;99909.38;;;2.97;100.00
69566;BME280;56777;55.930;37.524;2024-02-04T11:45:42;99899.19;;;3.01;100.00
69566;BME280;56777;55.930;37.524;2024-02-04T11:48:08;99908.03;;;3.08;100.00
69566;BME280;56777;55.930;37.524;2024-02-04T11:50:37;99869.41;;;2.88;100.00
69566;BME280;56777;55.930;37.524;2024-02-04T11:53:12;99883.81;;;3.06;100.00
69566;BME280;56777;55.930;37.524;2024-02-04T11:55:41;99900.47;;;3.14;100.00
69566;BME280;56777;55.930;37.524;2024-02-04T11:58:08;99905.06;;;3.21;100.00
69566;BME280;56777;55.930;37.524;2024-02-04T12:00:35;99905.09;;;3.23;100.00
69566;BME280;56777;55.930;37.524;2024-02-04T12:03:04;99910.38;;;3.26;100.00
69566;BME280;56777;55.930;37.524;2024-02-04T12:05:31;99912.09;;;3.25;100.00
69566;BME280;56777;55.930;37.524;2024-02-04T12:08:01;99895.31;;;3.14;100.00
69566;BME280;56777;55.930;37.524;2024-02-04T12:10:27;99893.47;;;3.11;100.00
69566;BME280;56777;55.930;37.524;2024-02-04T12:12:55;99898.88;;;3.17;100.00
69566;BME280;56777;55.930;37.524;2024-02-04T12:15:21;99893.47;;;3.11;100.00
69566;BME280;56777;55.930;37.524;2024-02-04T12:17:47;99899.56;;;3.12;100.00
69566;BME280;56777;55.930;37.524;2024-02-04T12:20:13;99881.78;;;2.97;100.00
69566;BME280;56777;55.930;37.524;2024-02-04T12:22:39;99902.97;;;3.11;100.00
69566;BME280;56777;55.930;37.524;2024-02-04T12:25:05;99919.47;;;3.14;100.00
69566;BME280;56777;55.930;37.524;2024-02-04T12:27:31;99832.59;;;2.71;100.00
69566;BME280;56777;55.930;37.524;2024-02-04T12:29:57;99902.75;;;3.05;100.00
69566;BME280;56777;55.930;37.524;2024-02-04T12:32:23;99914.09;;;3.08;100.00
69566;BME280;56777;55.930;37.524;2024-02-04T12:34:48;99907.06;;;3.04;100.00
69566;BME280;56777;55.930;37.524;2024-02-04T12:37:17;99912.34;;;3.07;100.00
69566;BME280;56777;55.930;37.524;2024-02-04T12:39:42;99904.50;;;3.06;100.00
69566;BME280;56777;55.930;37.524;2024-02-04T12:42:08;99918.56;;;3.12;100.00
69566;BME280;56777;55.930;37.524;2024-02-04T12:44:34;99890.56;;;3.01;100.00
69566;BME280;56777;55.930;37.524;2024-02-04T12:47:00;99896.59;;;3.01;100.00
69566;BME280;56777;55.930;37.524;2024-02-04T12:49:25;99895.75;;;3.02;100.00
69566;BME280;56777;55.930;37.524;2024-02-04T12:51:51;99899.22;;;3.03;100.00
69566;BME280;56777;55.930;37.524;2024-02-04T12:54:21;99927.00;;;3.07;100.00
69566;BME280;56777;55.930;37.524;2024-02-04T12:59:33;99913.97;;;3.05;100.00
69566;BME280;56777;55.930;37.524;2024-02-04T13:02:02;99915.78;;;3.06;100.00